RBY22 EGBK-EGJJ
Flight info
| Callsign | RBY22 |
|---|---|
| Flight time | 0h 51m |
| Altitude | 24000 |
| Route | DTY M605 SILVA M183 CPT/N0276F230 Y321 PEPIS/N0279F280 Q41 SAM N63 LELNA |
| Aircraft | SF50/L-SDGRWY/L |
Departure
| Time | 2026-04-25 18:49 |
|---|---|
| Airport | Sywell Aerodrome (EGBK) |
Arrival
| Time | 2026-04-25 19:40 |
|---|---|
| Airport | Jersey Airport (EGJJ) |
| Time | Latitude | Longitude | Altitude | Speed | Heading |
|---|---|---|---|---|---|
| 2026-04-25 18:44 | 52.30251 | -0.78971 | 401 ft | 0 kts | 56° |
| 2026-04-25 18:46 | 52.30254 | -0.78971 | 401 ft | 1 kts | 307° |
| 2026-04-25 18:47 | 52.30278 | -0.79039 | 401 ft | 8 kts | 285° |
| 2026-04-25 18:47 | 52.30266 | -0.79102 | 400 ft | 5 kts | 239° |
| 2026-04-25 18:47 | 52.30235 | -0.79185 | 399 ft | 13 kts | 239° |
| 2026-04-25 18:47 | 52.30174 | -0.79340 | 396 ft | 17 kts | 237° |
| 2026-04-25 18:48 | 52.30108 | -0.79497 | 392 ft | 16 kts | 241° |
| 2026-04-25 18:48 | 52.30116 | -0.79597 | 391 ft | 1 kts | 20° |
| 2026-04-25 18:48 | 52.30117 | -0.79597 | 391 ft | 0 kts | 20° |
| 2026-04-25 18:48 | 52.30324 | -0.79451 | 402 ft | 71 kts | 24° |
| 2026-04-25 18:49 | 52.30924 | -0.78997 | 715 ft | 106 kts | 25° |
| 2026-04-25 18:49 | 52.31623 | -0.78730 | 1376 ft | 117 kts | 344° |
| 2026-04-25 18:49 | 52.32187 | -0.79910 | 1986 ft | 152 kts | 290° |
| 2026-04-25 18:49 | 52.32177 | -0.81719 | 2721 ft | 176 kts | 246° |
| 2026-04-25 18:50 | 52.31432 | -0.83324 | 3729 ft | 178 kts | 230° |
| 2026-04-25 18:50 | 52.30659 | -0.84929 | 4739 ft | 181 kts | 233° |
| 2026-04-25 18:50 | 52.29884 | -0.86581 | 5724 ft | 184 kts | 233° |
| 2026-04-25 18:50 | 52.29090 | -0.88248 | 6685 ft | 187 kts | 233° |
| 2026-04-25 18:51 | 52.28285 | -0.89938 | 7621 ft | 190 kts | 232° |
| 2026-04-25 18:51 | 52.27733 | -0.91092 | 8239 ft | 192 kts | 232° |
| 2026-04-25 18:51 | 52.26636 | -0.93392 | 9423 ft | 196 kts | 232° |
| 2026-04-25 18:51 | 52.25792 | -0.95156 | 10292 ft | 198 kts | 232° |
| 2026-04-25 18:52 | 52.24940 | -0.96944 | 11138 ft | 201 kts | 232° |
| 2026-04-25 18:52 | 52.24067 | -0.98752 | 11947 ft | 204 kts | 232° |
| 2026-04-25 18:52 | 52.23178 | -1.00578 | 12741 ft | 206 kts | 232° |
| 2026-04-25 18:52 | 52.22292 | -1.02438 | 13488 ft | 209 kts | 233° |
| 2026-04-25 18:53 | 52.21398 | -1.04326 | 14189 ft | 211 kts | 233° |
| 2026-04-25 18:53 | 52.20491 | -1.06234 | 14855 ft | 214 kts | 232° |
| 2026-04-25 18:53 | 52.19566 | -1.08149 | 15496 ft | 216 kts | 231° |
| 2026-04-25 18:53 | 52.18421 | -1.09747 | 16068 ft | 219 kts | 208° |
| 2026-04-25 18:54 | 52.15488 | -1.10558 | 17180 ft | 219 kts | 168° |
| 2026-04-25 18:54 | 52.13991 | -1.10047 | 17682 ft | 221 kts | 166° |
| 2026-04-25 18:54 | 52.12475 | -1.09562 | 18182 ft | 223 kts | 167° |
| 2026-04-25 18:55 | 52.10946 | -1.09067 | 18665 ft | 225 kts | 166° |
| 2026-04-25 18:55 | 52.09409 | -1.08562 | 19132 ft | 226 kts | 167° |
| 2026-04-25 18:55 | 52.07856 | -1.08055 | 19582 ft | 228 kts | 166° |
| 2026-04-25 18:55 | 52.06295 | -1.07543 | 20017 ft | 230 kts | 167° |
| 2026-04-25 18:56 | 52.04721 | -1.07031 | 20437 ft | 231 kts | 167° |
| 2026-04-25 18:56 | 52.03138 | -1.06512 | 20841 ft | 233 kts | 167° |
| 2026-04-25 18:56 | 52.01540 | -1.05993 | 21240 ft | 234 kts | 167° |
| 2026-04-25 18:56 | 51.99947 | -1.05473 | 21664 ft | 233 kts | 167° |
| 2026-04-25 18:57 | 51.98355 | -1.04953 | 22077 ft | 233 kts | 167° |
| 2026-04-25 18:57 | 51.96765 | -1.04439 | 22479 ft | 233 kts | 167° |
| 2026-04-25 18:57 | 51.95176 | -1.03920 | 22876 ft | 232 kts | 167° |
| 2026-04-25 18:57 | 51.94124 | -1.03579 | 23134 ft | 232 kts | 167° |
| 2026-04-25 18:58 | 51.92025 | -1.02897 | 23621 ft | 232 kts | 167° |
| 2026-04-25 18:58 | 51.88856 | -1.01870 | 24203 ft | 238 kts | 167° |
| 2026-04-25 18:58 | 51.87182 | -1.01322 | 24203 ft | 252 kts | 167° |
| 2026-04-25 18:59 | 51.83900 | -1.01126 | 24219 ft | 269 kts | 192° |
| 2026-04-25 18:59 | 51.80301 | -1.03237 | 24219 ft | 281 kts | 200° |
| 2026-04-25 19:00 | 51.76583 | -1.05478 | 24221 ft | 292 kts | 200° |
| 2026-04-25 19:00 | 51.74657 | -1.06643 | 24219 ft | 298 kts | 200° |
| 2026-04-25 19:01 | 51.70706 | -1.09026 | 24222 ft | 307 kts | 200° |
| 2026-04-25 19:01 | 51.68698 | -1.10240 | 24220 ft | 309 kts | 200° |
| 2026-04-25 19:01 | 51.66673 | -1.11458 | 24218 ft | 311 kts | 200° |
| 2026-04-25 19:01 | 51.64633 | -1.12684 | 24220 ft | 313 kts | 200° |
| 2026-04-25 19:02 | 51.60531 | -1.15148 | 24219 ft | 316 kts | 200° |
| 2026-04-25 19:02 | 51.58470 | -1.16387 | 24222 ft | 317 kts | 200° |
| 2026-04-25 19:02 | 51.56431 | -1.17609 | 24219 ft | 317 kts | 200° |
| 2026-04-25 19:03 | 51.53656 | -1.19269 | 24218 ft | 318 kts | 200° |
| 2026-04-25 19:03 | 51.50204 | -1.21326 | 24220 ft | 318 kts | 199° |
| 2026-04-25 19:03 | 51.48056 | -1.22055 | 24206 ft | 316 kts | 184° |
| 2026-04-25 19:04 | 51.43651 | -1.22401 | 24212 ft | 316 kts | 182° |
| 2026-04-25 19:04 | 51.41450 | -1.22593 | 24211 ft | 317 kts | 182° |
| 2026-04-25 19:05 | 51.37042 | -1.22947 | 24213 ft | 317 kts | 182° |
| 2026-04-25 19:05 | 51.32625 | -1.23309 | 24213 ft | 318 kts | 182° |
| 2026-04-25 19:05 | 51.30417 | -1.23488 | 24213 ft | 318 kts | 182° |
| 2026-04-25 19:06 | 51.28231 | -1.23664 | 24209 ft | 318 kts | 182° |
| 2026-04-25 19:06 | 51.23807 | -1.24023 | 24213 ft | 318 kts | 182° |
| 2026-04-25 19:06 | 51.21594 | -1.24202 | 24213 ft | 318 kts | 182° |
| 2026-04-25 19:07 | 51.17254 | -1.25386 | 24202 ft | 318 kts | 195° |
| 2026-04-25 19:07 | 51.15118 | -1.26299 | 24204 ft | 318 kts | 194° |
| 2026-04-25 19:08 | 51.10835 | -1.28073 | 24203 ft | 318 kts | 194° |
| 2026-04-25 19:08 | 51.08692 | -1.28982 | 24208 ft | 319 kts | 194° |
| 2026-04-25 19:09 | 51.02252 | -1.31683 | 24208 ft | 319 kts | 194° |
| 2026-04-25 19:09 | 51.00829 | -1.32280 | 24209 ft | 320 kts | 194° |
| 2026-04-25 19:09 | 50.95832 | -1.34398 | 24207 ft | 319 kts | 197° |
| 2026-04-25 19:10 | 50.93816 | -1.35860 | 24204 ft | 319 kts | 207° |
| 2026-04-25 19:10 | 50.91840 | -1.37476 | 24203 ft | 319 kts | 206° |
| 2026-04-25 19:10 | 50.89844 | -1.39043 | 24199 ft | 320 kts | 206° |
| 2026-04-25 19:10 | 50.87844 | -1.40594 | 24203 ft | 320 kts | 206° |
| 2026-04-25 19:11 | 50.85856 | -1.42176 | 24203 ft | 320 kts | 206° |
| 2026-04-25 19:11 | 50.83872 | -1.43786 | 24212 ft | 320 kts | 207° |
| 2026-04-25 19:11 | 50.81890 | -1.45391 | 24218 ft | 320 kts | 206° |
| 2026-04-25 19:11 | 50.79895 | -1.46982 | 24222 ft | 320 kts | 206° |
| 2026-04-25 19:12 | 50.77902 | -1.48555 | 24222 ft | 320 kts | 206° |
| 2026-04-25 19:12 | 50.75934 | -1.50118 | 24219 ft | 321 kts | 206° |
| 2026-04-25 19:12 | 50.73940 | -1.51702 | 24221 ft | 321 kts | 206° |
| 2026-04-25 19:12 | 50.71945 | -1.53282 | 24218 ft | 321 kts | 206° |
| 2026-04-25 19:13 | 50.69945 | -1.54866 | 24213 ft | 321 kts | 206° |
| 2026-04-25 19:13 | 50.67948 | -1.56447 | 24212 ft | 321 kts | 206° |
| 2026-04-25 19:13 | 50.65943 | -1.58029 | 24213 ft | 321 kts | 206° |
| 2026-04-25 19:13 | 50.63940 | -1.59612 | 24094 ft | 324 kts | 206° |
| 2026-04-25 19:14 | 50.61935 | -1.61192 | 23844 ft | 321 kts | 206° |
| 2026-04-25 19:14 | 50.61288 | -1.61702 | 23763 ft | 320 kts | 206° |
| 2026-04-25 19:14 | 50.57961 | -1.64322 | 23343 ft | 319 kts | 206° |
| 2026-04-25 19:14 | 50.55977 | -1.65881 | 23093 ft | 319 kts | 206° |
| 2026-04-25 19:15 | 50.53988 | -1.67447 | 22843 ft | 319 kts | 206° |
| 2026-04-25 19:15 | 50.52022 | -1.68987 | 22596 ft | 320 kts | 206° |
| 2026-04-25 19:15 | 50.50029 | -1.70550 | 22346 ft | 320 kts | 206° |
| 2026-04-25 19:15 | 50.48030 | -1.72118 | 22096 ft | 320 kts | 206° |
| 2026-04-25 19:16 | 50.46032 | -1.73680 | 21846 ft | 321 kts | 206° |
| 2026-04-25 19:16 | 50.44036 | -1.75242 | 21597 ft | 321 kts | 206° |
| 2026-04-25 19:16 | 50.42035 | -1.76805 | 21346 ft | 321 kts | 206° |
| 2026-04-25 19:16 | 50.40032 | -1.78367 | 21097 ft | 322 kts | 206° |
| 2026-04-25 19:17 | 50.38027 | -1.79932 | 20847 ft | 322 kts | 206° |
| 2026-04-25 19:17 | 50.36016 | -1.81498 | 20597 ft | 322 kts | 206° |
| 2026-04-25 19:17 | 50.34006 | -1.83061 | 20347 ft | 323 kts | 206° |
| 2026-04-25 19:17 | 50.31987 | -1.84633 | 20218 ft | 325 kts | 206° |
| 2026-04-25 19:18 | 50.29969 | -1.86199 | 20218 ft | 323 kts | 206° |
| 2026-04-25 19:18 | 50.27962 | -1.87755 | 20217 ft | 321 kts | 206° |
| 2026-04-25 19:18 | 50.25990 | -1.89287 | 20221 ft | 320 kts | 206° |
| 2026-04-25 19:18 | 50.24000 | -1.90826 | 20221 ft | 318 kts | 206° |
| 2026-04-25 19:19 | 50.22017 | -1.92357 | 20219 ft | 318 kts | 206° |
| 2026-04-25 19:19 | 50.20038 | -1.93891 | 20210 ft | 317 kts | 206° |
| 2026-04-25 19:19 | 50.18057 | -1.95420 | 20218 ft | 317 kts | 206° |
| 2026-04-25 19:19 | 50.17392 | -1.95935 | 20219 ft | 316 kts | 206° |
| 2026-04-25 19:20 | 50.14109 | -1.98466 | 20219 ft | 316 kts | 206° |
| 2026-04-25 19:20 | 50.12139 | -1.99984 | 20219 ft | 316 kts | 206° |
| 2026-04-25 19:20 | 50.10166 | -2.01503 | 20219 ft | 316 kts | 206° |
| 2026-04-25 19:20 | 50.08194 | -2.03017 | 20219 ft | 316 kts | 206° |
| 2026-04-25 19:21 | 50.06220 | -2.04536 | 20219 ft | 316 kts | 206° |
| 2026-04-25 19:21 | 50.02297 | -2.07543 | 20219 ft | 316 kts | 206° |
| 2026-04-25 19:21 | 50.00323 | -2.09057 | 20190 ft | 317 kts | 206° |
| 2026-04-25 19:22 | 49.98327 | -2.10515 | 20108 ft | 317 kts | 201° |
| 2026-04-25 19:22 | 49.96168 | -2.11378 | 19682 ft | 323 kts | 190° |
| 2026-04-25 19:22 | 49.91752 | -2.12863 | 18636 ft | 324 kts | 192° |
| 2026-04-25 19:23 | 49.89558 | -2.13630 | 18112 ft | 323 kts | 192° |
| 2026-04-25 19:23 | 49.85156 | -2.15119 | 17063 ft | 324 kts | 191° |
| 2026-04-25 19:23 | 49.82950 | -2.15836 | 16537 ft | 323 kts | 191° |
| 2026-04-25 19:24 | 49.80748 | -2.16371 | 16015 ft | 319 kts | 184° |
| 2026-04-25 19:24 | 49.78542 | -2.16562 | 15507 ft | 316 kts | 181° |
| 2026-04-25 19:24 | 49.74165 | -2.16764 | 14508 ft | 312 kts | 180° |
| 2026-04-25 19:25 | 49.69853 | -2.16938 | 13533 ft | 308 kts | 180° |
| 2026-04-25 19:25 | 49.67746 | -2.17022 | 13051 ft | 306 kts | 180° |
| 2026-04-25 19:25 | 49.65627 | -2.17108 | 12570 ft | 303 kts | 180° |
| 2026-04-25 19:26 | 49.63532 | -2.17193 | 12092 ft | 299 kts | 180° |
| 2026-04-25 19:26 | 49.61461 | -2.17279 | 11618 ft | 297 kts | 180° |
| 2026-04-25 19:26 | 49.59396 | -2.17363 | 11147 ft | 296 kts | 180° |
| 2026-04-25 19:26 | 49.57346 | -2.17448 | 10677 ft | 294 kts | 180° |
| 2026-04-25 19:27 | 49.55341 | -2.17896 | 10190 ft | 293 kts | 197° |
| 2026-04-25 19:27 | 49.54718 | -2.18247 | 10039 ft | 293 kts | 201° |
| 2026-04-25 19:27 | 49.51631 | -2.20420 | 9273 ft | 290 kts | 205° |
| 2026-04-25 19:27 | 49.49819 | -2.21760 | 8819 ft | 288 kts | 205° |
| 2026-04-25 19:28 | 49.48012 | -2.23102 | 8367 ft | 287 kts | 205° |
| 2026-04-25 19:28 | 49.46224 | -2.24431 | 7919 ft | 284 kts | 205° |
| 2026-04-25 19:28 | 49.44472 | -2.25733 | 7477 ft | 282 kts | 205° |
| 2026-04-25 19:28 | 49.42698 | -2.27052 | 7215 ft | 282 kts | 205° |
| 2026-04-25 19:29 | 49.40929 | -2.28366 | 7215 ft | 282 kts | 205° |
| 2026-04-25 19:29 | 49.39170 | -2.29673 | 7216 ft | 276 kts | 205° |
| 2026-04-25 19:29 | 49.37504 | -2.30914 | 7208 ft | 261 kts | 205° |
| 2026-04-25 19:29 | 49.35946 | -2.32073 | 6283 ft | 246 kts | 205° |
| 2026-04-25 19:30 | 49.34401 | -2.33225 | 4865 ft | 248 kts | 205° |
| 2026-04-25 19:30 | 49.32867 | -2.34362 | 4057 ft | 235 kts | 205° |
| 2026-04-25 19:30 | 49.31451 | -2.35454 | 3617 ft | 220 kts | 211° |
| 2026-04-25 19:30 | 49.30314 | -2.37077 | 2501 ft | 226 kts | 229° |
| 2026-04-25 19:31 | 49.29317 | -2.38870 | 2040 ft | 211 kts | 230° |
| 2026-04-25 19:31 | 49.28355 | -2.40612 | 2033 ft | 216 kts | 230° |
| 2026-04-25 19:31 | 49.27389 | -2.42367 | 2034 ft | 215 kts | 230° |
| 2026-04-25 19:31 | 49.26749 | -2.43526 | 2034 ft | 215 kts | 230° |
| 2026-04-25 19:32 | 49.25780 | -2.45280 | 2035 ft | 215 kts | 230° |
| 2026-04-25 19:32 | 49.24814 | -2.47032 | 2037 ft | 215 kts | 230° |
| 2026-04-25 19:32 | 49.23844 | -2.48790 | 2034 ft | 215 kts | 230° |
| 2026-04-25 19:32 | 49.23204 | -2.49950 | 2035 ft | 216 kts | 230° |
| 2026-04-25 19:33 | 49.21909 | -2.52293 | 2035 ft | 216 kts | 230° |
| 2026-04-25 19:33 | 49.20941 | -2.54046 | 2035 ft | 216 kts | 230° |
| 2026-04-25 19:33 | 49.19971 | -2.55799 | 2032 ft | 216 kts | 230° |
| 2026-04-25 19:33 | 49.18934 | -2.57434 | 2023 ft | 215 kts | 213° |
| 2026-04-25 19:34 | 49.17522 | -2.57875 | 2033 ft | 210 kts | 168° |
| 2026-04-25 19:34 | 49.16409 | -2.56774 | 2027 ft | 182 kts | 120° |
| 2026-04-25 19:34 | 49.16053 | -2.55052 | 2032 ft | 164 kts | 99° |
| 2026-04-25 19:34 | 49.15910 | -2.53381 | 2025 ft | 156 kts | 77° |
| 2026-04-25 19:35 | 49.16341 | -2.51877 | 2035 ft | 155 kts | 60° |
| 2026-04-25 19:35 | 49.16862 | -2.50421 | 2040 ft | 157 kts | 60° |
| 2026-04-25 19:35 | 49.17387 | -2.48942 | 2042 ft | 163 kts | 60° |
| 2026-04-25 19:35 | 49.17951 | -2.47357 | 2048 ft | 173 kts | 60° |
| 2026-04-25 19:36 | 49.18535 | -2.45720 | 2047 ft | 177 kts | 60° |
| 2026-04-25 19:36 | 49.19119 | -2.44082 | 2047 ft | 178 kts | 60° |
| 2026-04-25 19:36 | 49.19688 | -2.42403 | 2048 ft | 177 kts | 67° |
| 2026-04-25 19:36 | 49.19892 | -2.40549 | 2031 ft | 179 kts | 88° |
| 2026-04-25 19:37 | 49.19665 | -2.38667 | 2029 ft | 180 kts | 100° |
| 2026-04-25 19:37 | 49.19515 | -2.36773 | 2035 ft | 180 kts | 93° |
| 2026-04-25 19:37 | 49.19261 | -2.34883 | 2039 ft | 182 kts | 99° |
| 2026-04-25 19:37 | 49.19190 | -2.32974 | 2023 ft | 178 kts | 78° |
| 2026-04-25 19:38 | 49.19534 | -2.31227 | 1988 ft | 162 kts | 67° |
| 2026-04-25 19:38 | 49.19897 | -2.29674 | 1719 ft | 146 kts | 71° |
| 2026-04-25 19:38 | 49.20091 | -2.28279 | 1550 ft | 112 kts | 78° |
| 2026-04-25 19:38 | 49.20183 | -2.27171 | 1187 ft | 100 kts | 78° |
| 2026-04-25 19:39 | 49.20267 | -2.26144 | 1024 ft | 98 kts | 79° |
| 2026-04-25 19:39 | 49.20346 | -2.25113 | 921 ft | 98 kts | 79° |
| 2026-04-25 19:39 | 49.20435 | -2.24095 | 802 ft | 99 kts | 79° |
| 2026-04-25 19:39 | 49.20514 | -2.23034 | 652 ft | 101 kts | 81° |
| 2026-04-25 19:40 | 49.20599 | -2.21951 | 484 ft | 103 kts | 79° |
| 2026-04-25 19:40 | 49.20691 | -2.20872 | 336 ft | 99 kts | 81° |
| 2026-04-25 19:40 | 49.20763 | -2.19991 | 276 ft | 69 kts | 81° |
| 2026-04-25 19:40 | 49.20812 | -2.19413 | 279 ft | 35 kts | 85° |
| 2026-04-25 19:41 | 49.20801 | -2.19088 | 277 ft | 25 kts | 96° |
| 2026-04-25 19:41 | 49.20754 | -2.18880 | 275 ft | 9 kts | 116° |
| 2026-04-25 19:41 | 49.20742 | -2.18856 | 276 ft | 0 kts | 143° |
| 2026-04-25 19:42 | 49.20741 | -2.18855 | 276 ft | 3 kts | 143° |
| 2026-04-25 19:42 | 49.20703 | -2.18882 | 277 ft | 12 kts | 255° |
| 2026-04-25 19:42 | 49.20690 | -2.19026 | 277 ft | 15 kts | 262° |
| 2026-04-25 19:43 | 49.20681 | -2.19204 | 274 ft | 19 kts | 279° |
| 2026-04-25 19:43 | 49.20710 | -2.19416 | 274 ft | 21 kts | 265° |
| 2026-04-25 19:43 | 49.20678 | -2.19625 | 274 ft | 19 kts | 231° |
| 2026-04-25 19:43 | 49.20615 | -2.19721 | 274 ft | 12 kts | 260° |
| 2026-04-25 19:44 | 49.20604 | -2.19888 | 274 ft | 19 kts | 255° |
| 2026-04-25 19:44 | 49.20493 | -2.19922 | 274 ft | 18 kts | 175° |
| 2026-04-25 19:44 | 49.20436 | -2.19807 | 274 ft | 16 kts | 84° |
| 2026-04-25 19:44 | 49.20439 | -2.19638 | 274 ft | 16 kts | 105° |
| 2026-04-25 19:45 | 49.20412 | -2.19483 | 274 ft | 15 kts | 103° |
| 2026-04-25 19:45 | 49.20402 | -2.19344 | 272 ft | 14 kts | 82° |
| 2026-04-25 19:45 | 49.20397 | -2.19223 | 270 ft | 8 kts | 175° |
| 2026-04-25 19:45 | 49.20373 | -2.19216 | 273 ft | 6 kts | 148° |
| 2026-04-25 19:46 | 49.20368 | -2.19201 | 273 ft | 0 kts | 83° |